Lady Lauren — WDE7767 — position and weather

sailwx.info

Track history (hours):
 
Tides and Currents Weather Stations Pressure Air Temp Water Temp Dewpoint Dewpoint Depression Visibility Wind Speed Wind Dir Waves Ship Positions

Lady Lauren

Owner: Louisiana Marine Towing LLC, Lafayette, LA. More information available from US FCC via Universal Licensing System and Coast Guard Vessel Documentation Center.

Last reported at 2015-Aug-03 14:33 UTC. Time now 2015-Aug-03 15:13 UTC.
Position N 29°60' W 090°01'.

Length 22 m; draft 2.1 m.

Type: Towing. MMSI: 367397380.

Date/timePositionNaut miles runAvg speedWind from/ knotsBaromVisibWave heightAir tempDewpointWater temp
2015-Aug-03 14:33N 29°60' W 090°01'0 0.0
2015-Aug-03 13:31N 29°60' W 090°01'0 0.0
2015-Aug-03 12:29N 29°60' W 090°01'0 0.0
2015-Aug-03 11:34N 29°60' W 090°01'  
2015-Jul-30 04:33N 29°59' W 090°01'1 1.0
2015-Jul-30 03:09N 29°57' W 090°02'0 0.5
2015-Jul-30 02:33N 29°57' W 090°02'0 0.1
2015-Jul-30 01:31N 29°57' W 090°02'0 0.0
2015-Jul-30 00:32N 29°57' W 090°02'0 0.0
2015-Jul-29 23:33N 29°57' W 090°02'0 0.0
2015-Jul-29 22:33N 29°57' W 090°02'0 0.0
2015-Jul-29 21:33N 29°57' W 090°02'0 0.0
2015-Jul-29 20:32N 29°57' W 090°02'0 0.0
2015-Jul-29 19:32N 29°57' W 090°02'0 0.0
2015-Jul-29 18:33N 29°57' W 090°02'0 0.0
2015-Jul-29 17:31N 29°57' W 090°02'0 0.0
2015-Jul-29 16:31N 29°57' W 090°02'0 0.0
2015-Jul-29 15:33N 29°57' W 090°02'0 0.0
2015-Jul-29 14:33N 29°57' W 090°02'0 0.0
2015-Jul-29 13:34N 29°57' W 090°02'0 0.0
2015-Jul-29 12:21N 29°57' W 090°02'0 0.0
2015-Jul-29 11:27N 29°57' W 090°02'3 0.2
2015-Jul-28 13:19N 29°55' W 090°05'3 0.5
2015-Jul-28 07:32N 29°55' W 090°08'3 2.4
2015-Jul-28 06:29N 29°55' W 090°05'2 2.1
2015-Jul-28 05:33N 29°56' W 090°04'2 2.4
2015-Jul-28 04:33N 29°58' W 090°02'1 1.1
2015-Jul-28 03:33N 29°59' W 090°01'0 0.5
2015-Jul-28 02:32N 29°59' W 090°01'0 0.0
2015-Jul-28 01:33N 29°59' W 090°01'1 0.8
2015-Jul-28 00:33N 30°00' W 090°02'1 0.8
2015-Jul-27 23:33N 29°59' W 090°01'0 0.0
2015-Jul-27 22:33N 29°59' W 090°01'0 0.0
2015-Jul-27 21:22N 29°59' W 090°01'0 0.0
2015-Jul-27 20:30N 29°59' W 090°01'0 0.2
2015-Jul-27 19:27N 29°59' W 090°01'0 0.0
2015-Jul-27 08:29N 29°59' W 090°01'0 0.0
2015-Jul-27 07:26N 29°59' W 090°01'0 0.0
2015-Jul-27 06:28N 29°59' W 090°01'0 0.0
2015-Jul-27 05:27N 29°59' W 090°01'0 0.0
2015-Jul-27 04:29N 29°59' W 090°01'0 0.0
2015-Jul-27 03:30N 29°59' W 090°01'0 0.0
2015-Jul-27 02:03N 29°59' W 090°01'0 0.0
2015-Jul-27 01:23N 29°59' W 090°01'0 0.0
2015-Jul-27 00:26N 29°59' W 090°01'0 0.0
2015-Jul-26 23:28N 29°59' W 090°01'0 0.0
2015-Jul-26 22:32N 29°59' W 090°01'0 0.0
2015-Jul-26 21:26N 29°59' W 090°01'0 0.0
2015-Jul-26 20:21N 29°59' W 090°01'0 0.0
2015-Jul-26 19:31N 29°59' W 090°01'0 0.0
2015-Jul-26 18:26N 29°59' W 090°01'0 0.0
2015-Jul-26 17:32N 29°59' W 090°01'0 0.0
2015-Jul-26 16:32N 29°59' W 090°01'0 0.0
2015-Jul-26 15:34N 29°59' W 090°01'0 0.0
2015-Jul-26 14:31N 29°59' W 090°01'1 0.9
2015-Jul-26 13:32N 29°60' W 090°00'  
Track history (hours):
 
Tides and Currents Weather Stations Pressure Air Temp Water Temp Dewpoint Dewpoint Depression Visibility Wind Speed Wind Dir Waves Ship Positions

Lady Lauren

Owner: Louisiana Marine Towing LLC, Lafayette, LA. More information available from US FCC via Universal Licensing System and Coast Guard Vessel Documentation Center.

Last reported at 2015-Aug-03 14:33 UTC. Time now 2015-Aug-03 15:13 UTC.
Position N 29°60' W 090°01'.

Length 22 m; draft 2.1 m.

Type: Towing. MMSI: 367397380.

Date/timePositionNaut miles runAvg speedWind from/ knotsBaromVisibWave heightAir tempDewpointWater temp
2015-Aug-03 14:33N 29°60' W 090°01'0 0.0
2015-Aug-03 13:31N 29°60' W 090°01'0 0.0
2015-Aug-03 12:29N 29°60' W 090°01'0 0.0
2015-Aug-03 11:34N 29°60' W 090°01'  
2015-Jul-30 04:33N 29°59' W 090°01'1 1.0
2015-Jul-30 03:09N 29°57' W 090°02'0 0.5
2015-Jul-30 02:33N 29°57' W 090°02'0 0.1
2015-Jul-30 01:31N 29°57' W 090°02'0 0.0
2015-Jul-30 00:32N 29°57' W 090°02'0 0.0
2015-Jul-29 23:33N 29°57' W 090°02'0 0.0
2015-Jul-29 22:33N 29°57' W 090°02'0 0.0
2015-Jul-29 21:33N 29°57' W 090°02'0 0.0
2015-Jul-29 20:32N 29°57' W 090°02'0 0.0
2015-Jul-29 19:32N 29°57' W 090°02'0 0.0
2015-Jul-29 18:33N 29°57' W 090°02'0 0.0
2015-Jul-29 17:31N 29°57' W 090°02'0 0.0
2015-Jul-29 16:31N 29°57' W 090°02'0 0.0
2015-Jul-29 15:33N 29°57' W 090°02'0 0.0
2015-Jul-29 14:33N 29°57' W 090°02'0 0.0
2015-Jul-29 13:34N 29°57' W 090°02'0 0.0
2015-Jul-29 12:21N 29°57' W 090°02'0 0.0
2015-Jul-29 11:27N 29°57' W 090°02'3 0.2
2015-Jul-28 13:19N 29°55' W 090°05'3 0.5
2015-Jul-28 07:32N 29°55' W 090°08'3 2.4
2015-Jul-28 06:29N 29°55' W 090°05'2 2.1
2015-Jul-28 05:33N 29°56' W 090°04'2 2.4
2015-Jul-28 04:33N 29°58' W 090°02'1 1.1
2015-Jul-28 03:33N 29°59' W 090°01'0 0.5
2015-Jul-28 02:32N 29°59' W 090°01'0 0.0
2015-Jul-28 01:33N 29°59' W 090°01'1 0.8
2015-Jul-28 00:33N 30°00' W 090°02'1 0.8
2015-Jul-27 23:33N 29°59' W 090°01'0 0.0
2015-Jul-27 22:33N 29°59' W 090°01'0 0.0
2015-Jul-27 21:22N 29°59' W 090°01'0 0.0
2015-Jul-27 20:30N 29°59' W 090°01'0 0.2
2015-Jul-27 19:27N 29°59' W 090°01'0 0.0
2015-Jul-27 08:29N 29°59' W 090°01'0 0.0
2015-Jul-27 07:26N 29°59' W 090°01'0 0.0
2015-Jul-27 06:28N 29°59' W 090°01'0 0.0
2015-Jul-27 05:27N 29°59' W 090°01'0 0.0
2015-Jul-27 04:29N 29°59' W 090°01'0 0.0
2015-Jul-27 03:30N 29°59' W 090°01'0 0.0
2015-Jul-27 02:03N 29°59' W 090°01'0 0.0
2015-Jul-27 01:23N 29°59' W 090°01'0 0.0
2015-Jul-27 00:26N 29°59' W 090°01'0 0.0
2015-Jul-26 23:28N 29°59' W 090°01'0 0.0
2015-Jul-26 22:32N 29°59' W 090°01'0 0.0
2015-Jul-26 21:26N 29°59' W 090°01'0 0.0
2015-Jul-26 20:21N 29°59' W 090°01'0 0.0
2015-Jul-26 19:31N 29°59' W 090°01'0 0.0
2015-Jul-26 18:26N 29°59' W 090°01'0 0.0
2015-Jul-26 17:32N 29°59' W 090°01'0 0.0
2015-Jul-26 16:32N 29°59' W 090°01'0 0.0
2015-Jul-26 15:34N 29°59' W 090°01'0 0.0
2015-Jul-26 14:31N 29°59' W 090°01'1 0.9
2015-Jul-26 13:32N 29°60' W 090°00'  

Dump ship's entire track history